Etusivu
METAR-TAF:

METAR-TAF

Lentoasemat :

Berens Riverin lentoasema

Berensjoki, Manitoba, Kanada

Leveyspiiri: 52-21N, Pituuspiiri: 097-02W, korkeus merenpinnasta: 222 m

Tämänhetkinen sää

Tämä raportti tehtiin 3 tuntia ja 6 minuuttia sitten, kello 22.00 UTC
Tuuli 8 kn etelästä/lounaasta
Lämpötila 9°C
Kosteus 43%
Ilmanpaine 1014 hPa
Näkyvyys: 24.1 km
Muutamia pilviä 10000 ft:n korkeudessa
Muutamia pilviä 22000 ft:n korkeudessa

METAR: CYBV 082200Z 20008KT 15SM FEW100 FEW220 09/M03 A2993 RMK AC1CS1 SNW CVR/MEDIUM PACK/LAST STFD OBS/NEXT 091300UTC SLP149

Aika: 19:06 (01:06 UTC)


TAF: puuttuu

Säähavainnot ja -ennusteet yli 4000 lentoasemalta (METAR- ja TAF-raportit).

Käytössä olevat sääasemat on merkitty karttaan keltaisilla ja punaisilla pisteillä.

Aseta hiiri pisteen päälle nähdäksesi sääaseman nimen.

Klikkaa sitten nähdäksesi säähavainnot ja -ennusteet.

Kartan vaihtaminen: klikkaa mustalla rastilla varustettuja vihreitä pisteitä, niin voit zoomata sisään; viivalla varustettua vihreää pistettä, niin voit zoomata ulos tai vihreitä nuolia, niin pääset viereisille kartoille.


METAR-TAF: